Etusivu
METAR-TAF:

METAR-TAF

Lentoasemat :

Peer, Belgia

Leveyspiiri: 51-10N, Pituuspiiri: 005-28E, korkeus merenpinnasta: 55 m

Tämänhetkinen sää

Tämä raportti tehtiin 29 minuuttia sitten, kello 03.43 UTC
Tuuli 1 kn eri suunnista
Lämpötila 3°C
Kosteus 93%
Ilmanpaine 1030 hPa
Näkyvyys: 2400 m
utua

METAR: EBBL 210343Z AUTO VRB01KT 2400 BR NCD 03/02 Q1030 YLO

Aika: 06:12 (04:12 UTC)

Sääennuste

Tämä raportti tehtiin 12 tuntia ja 31 minuuttia sitten, kello 15.41 UTC
Ennuste voimassa 19. päivästä klo 19 UTC - 20. päivään klo 07 UTC
Tuuli 5 kn koillisesta
Näkyvyys 10 km tai enemmän
Hajanaisia pilviä 3000 ft:n korkeudessa
Tulossa
20. päivästä klo 02 UTC - 20. päivään klo 04 UTC
Näkyvyys: 5000 m
utua

TAF: EBBL 191541Z 1919/2007 05005KT 9999 SCT030 BECMG 2002/2004 5000 BR

Säähavainnot ja -ennusteet yli 4000 lentoasemalta (METAR- ja TAF-raportit).

Käytössä olevat sääasemat on merkitty karttaan keltaisilla ja punaisilla pisteillä.

Aseta hiiri pisteen päälle nähdäksesi sääaseman nimen.

Klikkaa sitten nähdäksesi säähavainnot ja -ennusteet.

Kartan vaihtaminen: klikkaa mustalla rastilla varustettuja vihreitä pisteitä, niin voit zoomata sisään; viivalla varustettua vihreää pistettä, niin voit zoomata ulos tai vihreitä nuolia, niin pääset viereisille kartoille.


METAR-TAF: